Time;durP1;ratioP1;P1;durP2;ratioP2;P2;SDS_P1;SDS_P2;PMS_P1;PMS_P2;Temp;Humidity;BMP_temperature;BMP_pressure;BME280_temperature;BME280_humidity;BME280_pressure;Samples;Min_cycle;Max_cycle;Signal;HPM_P1;HPM_P2
2023/02/26 00:00:14;;;;;;;6.28;2.78;;;;;;;;;;5004441;28;20065;-77
2023/02/26 00:02:47;;;;;;;10.25;2.95;;;;;;;;;;5008131;28;20046;-77
2023/02/26 00:05:14;;;;;;;7.78;3.13;;;;;;;;;;5007922;28;20038;-77
2023/02/26 00:07:40;;;;;;;7.75;3.03;;;;;;;;;;5000780;28;20038;-76
2023/02/26 00:10:07;;;;;;;10.55;3.10;;;;;;;;;;4994301;28;20045;-76
2023/02/26 00:12:34;;;;;;;8.00;3.20;;;;;;;;;;5001390;28;20356;-76
2023/02/26 00:15:00;;;;;;;6.70;2.63;;;;;;;;;;5004206;28;20035;-77
2023/02/26 00:17:35;;;;;;;8.07;2.70;;;;;;;;;;5005868;28;20034;-77
2023/02/26 00:20:02;;;;;;;8.63;2.75;;;;;;;;;;5009581;28;20036;-76
2023/02/26 00:22:28;;;;;;;6.10;2.63;;;;;;;;;;5009252;28;20125;-77
2023/02/26 00:24:54;;;;;;;7.47;3.25;;;;;;;;;;5026048;28;20543;-77
2023/02/26 00:27:20;;;;;;;7.80;2.70;;;;;;;;;;5051307;28;20077;-77
2023/02/26 00:29:47;;;;;;;6.70;2.58;;;;;;;;;;5064064;28;20071;-77
2023/02/26 00:32:13;;;;;;;5.07;2.22;;;;;;;;;;5040666;28;20088;-77
2023/02/26 00:34:40;;;;;;;6.35;2.22;;;;;;;;;;5032300;28;20029;-77
2023/02/26 00:37:05;;;;;;;9.95;2.17;;;;;;;;;;5043526;28;20041;-77
2023/02/26 00:39:50;;;;;;;8.45;2.97;;;;;;;;;;5052959;28;20032;-77
2023/02/26 00:42:17;;;;;;;12.93;2.65;;;;;;;;;;5050497;28;20041;-77
2023/02/26 00:44:43;;;;;;;5.82;2.33;;;;;;;;;;5062867;28;20122;-77
2023/02/26 00:47:27;;;;;;;6.78;2.20;;;;;;;;;;5044614;28;20045;-77
2023/02/26 00:50:04;;;;;;;7.93;2.47;;;;;;;;;;5032708;28;20056;-77
2023/02/26 00:52:59;;;;;;;9.30;2.45;;;;;;;;;;5048808;28;20382;-76
2023/02/26 00:55:25;;;;;;;8.02;1.98;;;;;;;;;;4977209;28;20109;-77
2023/02/26 00:57:51;;;;;;;9.23;2.38;;;;;;;;;;5042889;28;20778;-77
2023/02/26 01:00:18;;;;;;;10.80;2.03;;;;;;;;;;5052650;28;20057;-77
2023/02/26 01:02:44;;;;;;;9.23;2.33;;;;;;;;;;5046768;28;20030;-77
2023/02/26 01:05:10;;;;;;;8.90;1.95;;;;;;;;;;5029876;28;20079;-76
2023/02/26 01:07:45;;;;;;;10.25;2.00;;;;;;;;;;5042207;28;20033;-76
2023/02/26 01:10:12;;;;;;;9.30;2.15;;;;;;;;;;5029856;28;20033;-77
2023/02/26 01:12:39;;;;;;;6.13;1.60;;;;;;;;;;5045594;28;20111;-77
2023/02/26 01:15:05;;;;;;;6.53;1.95;;;;;;;;;;5036577;28;20057;-77
2023/02/26 01:17:35;;;;;;;7.68;1.58;;;;;;;;;;5040396;28;20416;-77
2023/02/26 01:20:09;;;;;;;6.88;2.03;;;;;;;;;;5036723;28;20033;-77
2023/02/26 01:22:35;;;;;;;6.60;1.75;;;;;;;;;;5042015;28;20818;-77
2023/02/26 01:25:09;;;;;;;6.88;1.67;;;;;;;;;;5052704;28;20060;-77
2023/02/26 01:27:35;;;;;;;9.63;2.47;;;;;;;;;;5038182;28;20063;-76
2023/02/26 01:30:01;;;;;;;8.32;1.88;;;;;;;;;;5042420;28;20037;-77
2023/02/26 01:32:33;;;;;;;9.15;2.75;;;;;;;;;;5044446;28;20596;-77
2023/02/26 01:35:06;;;;;;;6.77;1.60;;;;;;;;;;5042757;28;20033;-76
2023/02/26 01:37:41;;;;;;;7.05;1.77;;;;;;;;;;5043647;28;20760;-77
2023/02/26 01:40:19;;;;;;;4.47;1.50;;;;;;;;;;5032377;28;20057;-76
2023/02/26 01:42:47;;;;;;;4.00;1.10;;;;;;;;;;5037702;28;20079;-77
2023/02/26 01:45:16;;;;;;;5.63;1.65;;;;;;;;;;5034522;28;20033;-76
2023/02/26 01:47:49;;;;;;;8.25;1.83;;;;;;;;;;5045632;28;20550;-77
2023/02/26 01:50:17;;;;;;;6.90;1.60;;;;;;;;;;5032772;28;20040;-77
2023/02/26 01:52:49;;;;;;;6.00;1.80;;;;;;;;;;5038507;28;20041;-76
2023/02/26 01:55:16;;;;;;;4.85;1.33;;;;;;;;;;5050974;28;20029;-76
2023/02/26 01:57:42;;;;;;;7.28;1.58;;;;;;;;;;5036566;28;20040;-76
2023/02/26 02:00:08;;;;;;;4.35;1.20;;;;;;;;;;5033835;28;20044;-76
2023/02/26 02:02:35;;;;;;;5.30;1.30;;;;;;;;;;5050186;28;20036;-76
2023/02/26 02:05:03;;;;;;;5.43;1.48;;;;;;;;;;5051146;28;20120;-76
2023/02/26 02:07:29;;;;;;;7.90;1.40;;;;;;;;;;5038266;28;20487;-76
2023/02/26 02:09:55;;;;;;;3.40;1.15;;;;;;;;;;5039715;28;20046;-77
2023/02/26 02:12:24;;;;;;;7.45;1.60;;;;;;;;;;5033997;28;20029;-76
2023/02/26 02:14:53;;;;;;;3.80;1.15;;;;;;;;;;5062281;28;20036;-76
2023/02/26 02:17:25;;;;;;;5.97;1.40;;;;;;;;;;5033055;28;20074;-76
2023/02/26 02:20:03;;;;;;;4.68;1.13;;;;;;;;;;5049033;28;20425;-76
2023/02/26 02:22:32;;;;;;;4.28;1.27;;;;;;;;;;5047063;28;20021;-76
2023/02/26 02:25:01;;;;;;;6.90;1.27;;;;;;;;;;5039629;28;20067;-77
2023/02/26 02:27:47;;;;;;;3.88;1.00;;;;;;;;;;5048590;28;20044;-77
2023/02/26 02:30:15;;;;;;;4.60;1.10;;;;;;;;;;5045064;28;20110;-77
2023/02/26 02:32:54;;;;;;;7.68;1.40;;;;;;;;;;5036735;28;20060;-76
2023/02/26 02:35:23;;;;;;;2.78;1.23;;;;;;;;;;5045084;28;22623;-77
2023/02/26 02:38:07;;;;;;;6.20;1.50;;;;;;;;;;5055571;28;20055;-76
2023/02/26 02:40:35;;;;;;;4.82;0.98;;;;;;;;;;5036430;28;20033;-76
2023/02/26 02:43:05;;;;;;;8.50;1.50;;;;;;;;;;5060899;28;20036;-77
2023/02/26 02:45:36;;;;;;;5.38;1.50;;;;;;;;;;5062884;28;20098;-76
2023/02/26 02:48:05;;;;;;;5.47;1.40;;;;;;;;;;5049571;28;20087;-76
2023/02/26 02:50:43;;;;;;;6.25;1.88;;;;;;;;;;5039467;28;20037;-77
2023/02/26 02:53:12;;;;;;;6.68;1.60;;;;;;;;;;5039672;28;20052;-76
2023/02/26 02:55:42;;;;;;;8.90;1.60;;;;;;;;;;5042799;28;20064;-77
2023/02/26 02:58:10;;;;;;;9.15;1.70;;;;;;;;;;5044924;28;20112;-77
2023/02/26 03:00:45;;;;;;;4.22;1.10;;;;;;;;;;5039775;28;20212;-77
2023/02/26 03:03:26;;;;;;;4.82;1.25;;;;;;;;;;5053051;28;20041;-76
2023/02/26 03:05:52;;;;;;;5.00;1.15;;;;;;;;;;5045911;28;20041;-76
2023/02/26 03:08:20;;;;;;;6.25;1.45;;;;;;;;;;5055105;28;20064;-77
2023/02/26 03:10:47;;;;;;;6.22;1.48;;;;;;;;;;5043054;28;20047;-76
2023/02/26 03:13:14;;;;;;;7.18;1.38;;;;;;;;;;5057571;28;20032;-76
2023/02/26 03:15:59;;;;;;;4.55;1.30;;;;;;;;;;5037541;28;20037;-77
2023/02/26 03:18:28;;;;;;;4.13;1.33;;;;;;;;;;5060489;28;20070;-77
2023/02/26 03:21:14;;;;;;;6.55;1.50;;;;;;;;;;5047940;28;20037;-76
2023/02/26 03:23:45;;;;;;;6.38;1.77;;;;;;;;;;5044502;28;20053;-76
2023/02/26 03:26:17;;;;;;;6.13;1.67;;;;;;;;;;5036448;28;20505;-76
2023/02/26 03:28:52;;;;;;;7.85;1.98;;;;;;;;;;5033792;28;20034;-77
2023/02/26 03:31:21;;;;;;;9.50;1.42;;;;;;;;;;5050405;28;20037;-77
2023/02/26 03:33:56;;;;;;;4.28;1.20;;;;;;;;;;5039835;28;20036;-77
2023/02/26 03:36:25;;;;;;;4.43;1.02;;;;;;;;;;5044932;28;20370;-77
2023/02/26 03:39:07;;;;;;;5.40;1.20;;;;;;;;;;5049626;28;20043;-76
2023/02/26 03:41:42;;;;;;;6.88;1.60;;;;;;;;;;5052770;28;20036;-77
2023/02/26 03:44:12;;;;;;;4.80;1.27;;;;;;;;;;5048788;28;20140;-77
2023/02/26 03:46:45;;;;;;;6.47;1.60;;;;;;;;;;5042722;28;20048;-76
2023/02/26 03:49:14;;;;;;;5.53;1.50;;;;;;;;;;5043143;28;20115;-76
2023/02/26 03:51:41;;;;;;;5.80;1.42;;;;;;;;;;5060227;28;20505;-77
2023/02/26 03:54:15;;;;;;;6.30;1.52;;;;;;;;;;5048293;28;20075;-77
2023/02/26 03:56:43;;;;;;;7.63;1.65;;;;;;;;;;5048797;28;20086;-77
2023/02/26 03:59:09;;;;;;;6.20;1.70;;;;;;;;;;5051235;28;20115;-77
2023/02/26 04:01:41;;;;;;;6.13;1.58;;;;;;;;;;5051014;28;20029;-77
2023/02/26 04:04:10;;;;;;;4.80;1.38;;;;;;;;;;5047158;28;20052;-76
2023/02/26 04:06:36;;;;;;;7.25;1.42;;;;;;;;;;5039114;28;20043;-76
2023/02/26 04:09:03;;;;;;;5.97;1.35;;;;;;;;;;5054161;28;20115;-77
2023/02/26 04:11:30;;;;;;;7.03;1.63;;;;;;;;;;5058459;28;20057;-76
2023/02/26 04:13:56;;;;;;;4.68;1.60;;;;;;;;;;5063078;28;20043;-77
2023/02/26 04:16:22;;;;;;;9.00;1.98;;;;;;;;;;5048253;28;20533;-77
2023/02/26 04:18:48;;;;;;;6.88;1.58;;;;;;;;;;5053148;28;20087;-76
2023/02/26 04:21:16;;;;;;;7.35;1.88;;;;;;;;;;5048209;28;20040;-76
2023/02/26 04:23:42;;;;;;;7.03;1.63;;;;;;;;;;5051220;28;20076;-76
2023/02/26 04:26:08;;;;;;;6.00;1.75;;;;;;;;;;5058843;28;20829;-77
2023/02/26 04:28:36;;;;;;;8.00;1.80;;;;;;;;;;5047575;28;20029;-76
2023/02/26 04:31:02;;;;;;;8.43;1.92;;;;;;;;;;5048688;28;20029;-76
2023/02/26 04:33:28;;;;;;;6.57;1.85;;;;;;;;;;5050057;28;20520;-76
2023/02/26 04:35:54;;;;;;;8.43;1.95;;;;;;;;;;5045311;28;20717;-77
2023/02/26 04:38:20;;;;;;;6.45;2.20;;;;;;;;;;5021938;28;20038;-77
2023/02/26 04:40:47;;;;;;;5.97;1.60;;;;;;;;;;5057290;28;20098;-76
2023/02/26 04:43:13;;;;;;;7.53;1.90;;;;;;;;;;5050788;28;20378;-77
2023/02/26 04:45:39;;;;;;;6.45;1.98;;;;;;;;;;5041102;28;20017;-77
2023/02/26 04:48:05;;;;;;;8.55;2.08;;;;;;;;;;5047798;28;20478;-76
2023/02/26 04:50:31;;;;;;;8.52;2.53;;;;;;;;;;5051842;28;20021;-76
2023/02/26 04:52:57;;;;;;;7.63;2.22;;;;;;;;;;5043260;28;20041;-76
2023/02/26 04:55:23;;;;;;;7.28;2.45;;;;;;;;;;5033606;28;20025;-76
2023/02/26 04:57:49;;;;;;;5.93;2.35;;;;;;;;;;5060513;28;20547;-76
2023/02/26 05:00:16;;;;;;;5.82;1.77;;;;;;;;;;5039318;28;20054;-76
2023/02/26 05:02:42;;;;;;;6.82;1.80;;;;;;;;;;5039952;28;20068;-76
2023/02/26 05:05:08;;;;;;;7.07;2.50;;;;;;;;;;5055457;28;20132;-77
2023/02/26 05:07:34;;;;;;;6.55;2.10;;;;;;;;;;5050153;28;20036;-77
2023/02/26 05:10:00;;;;;;;7.97;2.35;;;;;;;;;;5035159;28;20590;-76
2023/02/26 05:12:26;;;;;;;9.05;2.05;;;;;;;;;;5042855;28;20033;-76
2023/02/26 05:14:52;;;;;;;6.78;1.95;;;;;;;;;;5046710;28;20098;-76
2023/02/26 05:17:18;;;;;;;4.50;1.50;;;;;;;;;;5047457;28;20492;-77
2023/02/26 05:19:44;;;;;;;4.78;1.98;;;;;;;;;;5045692;28;20025;-77
2023/02/26 05:22:11;;;;;;;7.95;2.30;;;;;;;;;;5061110;28;20040;-77
2023/02/26 05:24:38;;;;;;;5.45;1.88;;;;;;;;;;5052837;28;20045;-76
2023/02/26 05:27:04;;;;;;;5.57;2.15;;;;;;;;;;5057146;28;20359;-76
2023/02/26 05:29:30;;;;;;;8.52;2.20;;;;;;;;;;5040403;28;20041;-76
2023/02/26 05:31:56;;;;;;;6.70;2.30;;;;;;;;;;5049042;28;20463;-77
2023/02/26 05:34:22;;;;;;;5.28;2.10;;;;;;;;;;5042067;28;20493;-76
2023/02/26 05:36:48;;;;;;;6.22;2.17;;;;;;;;;;5036464;28;20108;-76
2023/02/26 05:39:14;;;;;;;8.00;2.35;;;;;;;;;;5044640;28;20096;-77
2023/02/26 05:41:40;;;;;;;6.05;2.58;;;;;;;;;;5039613;28;20108;-76
2023/02/26 05:44:07;;;;;;;5.93;2.25;;;;;;;;;;5049809;28;20032;-76
2023/02/26 05:46:33;;;;;;;5.80;1.80;;;;;;;;;;5035095;28;20391;-76
2023/02/26 05:48:59;;;;;;;9.48;1.70;;;;;;;;;;5045724;28;20045;-76
2023/02/26 05:51:25;;;;;;;6.40;1.92;;;;;;;;;;5062276;28;20115;-76
2023/02/26 05:53:51;;;;;;;5.15;1.70;;;;;;;;;;5050075;28;20035;-76
2023/02/26 05:56:17;;;;;;;6.47;1.73;;;;;;;;;;5041021;28;20037;-76
2023/02/26 05:58:43;;;;;;;6.13;1.80;;;;;;;;;;5041346;28;20033;-76
2023/02/26 06:01:09;;;;;;;7.60;1.85;;;;;;;;;;5045387;28;20033;-76
2023/02/26 06:03:35;;;;;;;5.85;2.30;;;;;;;;;;5041191;28;20037;-76
2023/02/26 06:06:01;;;;;;;4.55;1.83;;;;;;;;;;5040619;28;20036;-76
2023/02/26 06:08:27;;;;;;;5.82;1.70;;;;;;;;;;5036405;28;20025;-76
2023/02/26 06:10:53;;;;;;;5.95;2.10;;;;;;;;;;5051035;28;20048;-76
2023/02/26 06:13:19;;;;;;;6.35;2.00;;;;;;;;;;5038935;28;20028;-76
2023/02/26 06:15:46;;;;;;;4.70;1.67;;;;;;;;;;5040614;28;20037;-76
2023/02/26 06:18:12;;;;;;;4.95;1.70;;;;;;;;;;5030074;28;20036;-76
2023/02/26 06:20:38;;;;;;;4.90;1.90;;;;;;;;;;5038136;28;20029;-76
2023/02/26 06:23:04;;;;;;;6.50;1.90;;;;;;;;;;5043060;28;20048;-76
2023/02/26 06:25:30;;;;;;;6.55;2.13;;;;;;;;;;5044243;28;20053;-76
2023/02/26 06:27:56;;;;;;;5.35;2.00;;;;;;;;;;5048383;28;20040;-76
2023/02/26 06:30:23;;;;;;;6.60;1.77;;;;;;;;;;5049255;28;20708;-76
2023/02/26 06:32:49;;;;;;;5.22;1.60;;;;;;;;;;5044855;28;20083;-77
2023/02/26 06:35:15;;;;;;;4.50;1.98;;;;;;;;;;5053919;28;20029;-76
2023/02/26 06:37:41;;;;;;;5.28;1.70;;;;;;;;;;5045398;28;20529;-76
2023/02/26 06:40:09;;;;;;;6.43;1.67;;;;;;;;;;5041832;28;20037;-76
2023/02/26 06:42:35;;;;;;;5.38;1.50;;;;;;;;;;5041334;28;20053;-76
2023/02/26 06:45:02;;;;;;;6.78;2.55;;;;;;;;;;5043146;28;20068;-76
2023/02/26 06:47:28;;;;;;;3.42;1.55;;;;;;;;;;5043350;28;20900;-76
2023/02/26 06:49:54;;;;;;;5.85;1.95;;;;;;;;;;5039933;28;20109;-77
2023/02/26 06:52:20;;;;;;;5.50;1.90;;;;;;;;;;5051270;28;20116;-76
2023/02/26 06:54:46;;;;;;;5.57;1.75;;;;;;;;;;5044645;28;20394;-76
2023/02/26 06:57:12;;;;;;;7.95;2.50;;;;;;;;;;5059162;28;20040;-76
2023/02/26 06:59:38;;;;;;;5.70;2.53;;;;;;;;;;5042852;28;20036;-76
2023/02/26 07:02:04;;;;;;;6.88;1.77;;;;;;;;;;5037359;28;20112;-76
2023/02/26 07:04:30;;;;;;;6.03;2.00;;;;;;;;;;5041495;28;20107;-76
2023/02/26 07:06:56;;;;;;;3.53;1.30;;;;;;;;;;5044180;28;20044;-76
2023/02/26 07:09:22;;;;;;;4.50;1.58;;;;;;;;;;5040586;28;20034;-76
2023/02/26 07:11:48;;;;;;;5.85;1.83;;;;;;;;;;5037054;28;20044;-77
2023/02/26 07:14:14;;;;;;;4.47;1.73;;;;;;;;;;5039671;28;20029;-76
2023/02/26 07:16:40;;;;;;;5.63;1.67;;;;;;;;;;5039392;28;20629;-76
2023/02/26 07:19:06;;;;;;;5.28;1.38;;;;;;;;;;5044662;28;20036;-76
2023/02/26 07:21:32;;;;;;;5.38;1.48;;;;;;;;;;5028453;28;20045;-76
2023/02/26 07:23:58;;;;;;;2.88;1.15;;;;;;;;;;5048388;28;20778;-76
2023/02/26 07:26:24;;;;;;;4.82;1.48;;;;;;;;;;5033251;28;20038;-76
2023/02/26 07:28:50;;;;;;;4.10;1.48;;;;;;;;;;5048949;28;20720;-75
2023/02/26 07:31:17;;;;;;;6.10;1.20;;;;;;;;;;5038366;28;20105;-76
2023/02/26 07:33:43;;;;;;;5.95;1.80;;;;;;;;;;5043051;28;20080;-76
2023/02/26 07:36:09;;;;;;;4.88;1.60;;;;;;;;;;5046910;28;20052;-76
2023/02/26 07:38:35;;;;;;;4.57;1.50;;;;;;;;;;5040346;28;20033;-76
2023/02/26 07:41:01;;;;;;;4.15;1.45;;;;;;;;;;5039912;28;20095;-76
2023/02/26 07:43:27;;;;;;;4.45;1.65;;;;;;;;;;5046756;28;20036;-76
2023/02/26 07:45:53;;;;;;;7.45;1.92;;;;;;;;;;5041948;28;20108;-76
2023/02/26 07:48:19;;;;;;;4.10;1.30;;;;;;;;;;5038974;28;20030;-76
2023/02/26 07:50:46;;;;;;;3.95;1.13;;;;;;;;;;5043364;28;20025;-76
2023/02/26 07:53:12;;;;;;;6.65;1.20;;;;;;;;;;5043604;28;20806;-76
2023/02/26 07:55:38;;;;;;;5.30;1.50;;;;;;;;;;5038728;28;20052;-77
2023/02/26 07:58:04;;;;;;;3.05;1.05;;;;;;;;;;5044068;28;20033;-76
2023/02/26 08:00:30;;;;;;;3.70;1.30;;;;;;;;;;5040506;28;20033;-76
2023/02/26 08:02:56;;;;;;;3.78;1.23;;;;;;;;;;5041730;28;20128;-76
2023/02/26 08:05:22;;;;;;;4.03;1.30;;;;;;;;;;5037044;28;20029;-76
2023/02/26 08:07:48;;;;;;;3.33;1.20;;;;;;;;;;5044725;28;20048;-76
2023/02/26 08:10:14;;;;;;;3.70;1.38;;;;;;;;;;5045693;28;20721;-77
2023/02/26 08:12:40;;;;;;;4.45;1.40;;;;;;;;;;5040635;28;20390;-76
2023/02/26 08:15:06;;;;;;;3.70;1.20;;;;;;;;;;5035757;28;20033;-76
2023/02/26 08:17:32;;;;;;;4.13;1.50;;;;;;;;;;5043136;28;20033;-76
2023/02/26 08:19:58;;;;;;;4.25;1.17;;;;;;;;;;5042426;28;20028;-77
2023/02/26 08:22:25;;;;;;;2.75;1.13;;;;;;;;;;5043881;28;20044;-76
2023/02/26 08:24:51;;;;;;;2.00;0.95;;;;;;;;;;5041508;28;20451;-76
2023/02/26 08:27:17;;;;;;;5.88;1.20;;;;;;;;;;5049917;28;20053;-76
2023/02/26 08:29:45;;;;;;;4.55;1.20;;;;;;;;;;5016864;28;20124;-76
2023/02/26 08:32:11;;;;;;;2.92;1.10;;;;;;;;;;5043964;28;20036;-76
2023/02/26 08:34:37;;;;;;;2.40;1.13;;;;;;;;;;5046074;28;20383;-76
2023/02/26 08:37:03;;;;;;;5.57;1.50;;;;;;;;;;5048873;28;20028;-76
2023/02/26 08:39:32;;;;;;;2.60;1.20;;;;;;;;;;5041756;28;20056;-76
2023/02/26 08:41:58;;;;;;;5.63;1.42;;;;;;;;;;5036856;28;20803;-76
2023/02/26 08:44:24;;;;;;;2.70;1.20;;;;;;;;;;5041959;28;20461;-76
2023/02/26 08:46:50;;;;;;;3.45;1.20;;;;;;;;;;5044307;28;20128;-76
2023/02/26 08:49:16;;;;;;;4.25;1.23;;;;;;;;;;5046321;28;20139;-77
2023/02/26 08:51:42;;;;;;;5.85;1.08;;;;;;;;;;5048891;28;20041;-76
2023/02/26 08:54:09;;;;;;;4.90;1.15;;;;;;;;;;5048896;28;20021;-76
2023/02/26 08:56:35;;;;;;;3.38;1.08;;;;;;;;;;5046934;28;20037;-76
2023/02/26 08:59:01;;;;;;;4.20;1.17;;;;;;;;;;5048105;28;20044;-76
2023/02/26 09:01:27;;;;;;;4.60;1.38;;;;;;;;;;5050117;28;20739;-76
2023/02/26 09:03:53;;;;;;;3.63;0.95;;;;;;;;;;5030140;28;20033;-76
2023/02/26 09:06:19;;;;;;;4.68;1.17;;;;;;;;;;5045696;28;20036;-76
2023/02/26 09:08:45;;;;;;;3.58;1.10;;;;;;;;;;5037992;28;20033;-76
2023/02/26 09:11:11;;;;;;;6.78;1.33;;;;;;;;;;5046584;28;20499;-76
2023/02/26 09:13:37;;;;;;;3.35;1.20;;;;;;;;;;5048566;28;20033;-76
2023/02/26 09:16:03;;;;;;;4.25;0.90;;;;;;;;;;5042931;28;20376;-76
2023/02/26 09:18:29;;;;;;;5.57;1.10;;;;;;;;;;5048595;28;20831;-76
2023/02/26 09:20:55;;;;;;;3.22;1.33;;;;;;;;;;5046101;28;20412;-76
2023/02/26 09:23:21;;;;;;;2.78;1.10;;;;;;;;;;5042196;28;20170;-76
2023/02/26 09:25:52;;;;;;;4.28;1.13;;;;;;;;;;5042393;28;20065;-76
2023/02/26 09:28:18;;;;;;;3.42;1.10;;;;;;;;;;5045608;28;20021;-76
2023/02/26 09:30:44;;;;;;;2.78;1.02;;;;;;;;;;5044003;28;20490;-76
2023/02/26 09:33:10;;;;;;;4.22;1.00;;;;;;;;;;5046343;28;20037;-77
2023/02/26 09:35:36;;;;;;;5.25;0.90;;;;;;;;;;5040100;28;20821;-76
2023/02/26 09:38:02;;;;;;;3.53;1.20;;;;;;;;;;5033498;28;21576;-77
2023/02/26 09:40:38;;;;;;;4.03;1.00;;;;;;;;;;5057707;28;20026;-76
2023/02/26 09:43:27;;;;;;;3.00;0.88;;;;;;;;;;5043364;28;20156;-76
2023/02/26 09:45:54;;;;;;;2.63;1.00;;;;;;;;;;5042747;28;20048;-76
2023/02/26 09:48:23;;;;;;;6.03;1.05;;;;;;;;;;5043278;28;20033;-76
2023/02/26 09:50:53;;;;;;;5.38;1.08;;;;;;;;;;5041821;28;20383;-76
2023/02/26 09:53:26;;;;;;;2.15;0.88;;;;;;;;;;5051918;28;20086;-76
2023/02/26 09:55:54;;;;;;;3.13;0.70;;;;;;;;;;5037885;28;20029;-76
2023/02/26 09:58:24;;;;;;;5.50;1.00;;;;;;;;;;5042835;28;20479;-76
2023/02/26 10:00:58;;;;;;;2.80;1.00;;;;;;;;;;5032790;28;20375;-76
2023/02/26 10:03:33;;;;;;;3.63;1.00;;;;;;;;;;5033905;28;20483;-76
2023/02/26 10:06:21;;;;;;;2.92;1.02;;;;;;;;;;5038836;28;20040;-76
2023/02/26 10:08:50;;;;;;;4.50;1.30;;;;;;;;;;5018430;28;20041;-75
2023/02/26 10:11:20;;;;;;;3.38;1.40;;;;;;;;;;5034640;28;20508;-76
2023/02/26 10:13:50;;;;;;;2.70;0.93;;;;;;;;;;5052814;28;20035;-76
2023/02/26 10:16:24;;;;;;;2.25;0.90;;;;;;;;;;5040545;28;20493;-76
2023/02/26 10:18:52;;;;;;;3.17;0.90;;;;;;;;;;5037940;28;20075;-76
2023/02/26 10:21:24;;;;;;;3.28;0.73;;;;;;;;;;5044283;28;20033;-76
2023/02/26 10:23:52;;;;;;;1.73;0.70;;;;;;;;;;5033967;28;20029;-76
2023/02/26 10:26:26;;;;;;;3.05;0.98;;;;;;;;;;5040874;28;20985;-76
2023/02/26 10:28:55;;;;;;;3.42;1.00;;;;;;;;;;5036556;28;20031;-76
2023/02/26 10:31:24;;;;;;;4.15;1.15;;;;;;;;;;5048148;28;20037;-76
2023/02/26 10:33:56;;;;;;;2.60;0.80;;;;;;;;;;5046868;28;20033;-76
2023/02/26 10:36:27;;;;;;;5.22;0.80;;;;;;;;;;5034630;28;20521;-76
2023/02/26 10:39:02;;;;;;;3.17;0.80;;;;;;;;;;5045041;28;20043;-76
2023/02/26 10:41:30;;;;;;;2.30;0.82;;;;;;;;;;5043755;28;20115;-77
2023/02/26 10:43:59;;;;;;;2.72;0.70;;;;;;;;;;5028751;28;20083;-76
2023/02/26 10:46:34;;;;;;;3.47;0.75;;;;;;;;;;5044651;28;20029;-76
2023/02/26 10:49:23;;;;;;;3.60;0.68;;;;;;;;;;5034823;28;20036;-76
2023/02/26 10:51:51;;;;;;;3.20;0.70;;;;;;;;;;5042043;28;20044;-76
2023/02/26 10:54:29;;;;;;;4.53;0.73;;;;;;;;;;5038073;28;20036;-76
2023/02/26 10:56:55;;;;;;;1.85;0.77;;;;;;;;;;5045628;28;20071;-76
2023/02/26 10:59:22;;;;;;;2.17;0.70;;;;;;;;;;5047833;28;20684;-76
2023/02/26 11:01:48;;;;;;;2.63;0.70;;;;;;;;;;5038967;28;20150;-76
2023/02/26 11:04:17;;;;;;;1.65;0.60;;;;;;;;;;5036437;28;20846;-76
2023/02/26 11:06:48;;;;;;;2.83;0.60;;;;;;;;;;5054043;28;20075;-76
2023/02/26 11:09:23;;;;;;;2.15;0.70;;;;;;;;;;5039646;28;20044;-76
2023/02/26 11:12:04;;;;;;;3.85;0.82;;;;;;;;;;5040478;28;20033;-76
2023/02/26 11:14:31;;;;;;;3.58;0.80;;;;;;;;;;5038892;28;20033;-76
2023/02/26 11:16:59;;;;;;;3.92;0.88;;;;;;;;;;5039827;28;20031;-76
2023/02/26 11:19:27;;;;;;;1.98;0.77;;;;;;;;;;5040955;28;20037;-76
2023/02/26 11:21:54;;;;;;;2.58;0.60;;;;;;;;;;5038740;28;20041;-75
2023/02/26 11:24:32;;;;;;;1.95;0.80;;;;;;;;;;5036269;28;20057;-76
2023/02/26 11:27:02;;;;;;;2.08;0.60;;;;;;;;;;5043985;28;20816;-76
2023/02/26 11:29:32;;;;;;;1.15;0.50;;;;;;;;;;5048520;28;20029;-76
2023/02/26 11:32:00;;;;;;;1.65;0.47;;;;;;;;;;5036919;28;20037;-76
2023/02/26 11:34:26;;;;;;;3.65;0.70;;;;;;;;;;5037950;28;20370;-76
2023/02/26 11:36:55;;;;;;;1.90;0.70;;;;;;;;;;5045792;28;20528;-76
2023/02/26 11:39:22;;;;;;;3.42;1.02;;;;;;;;;;5041795;28;20108;-76
2023/02/26 11:41:50;;;;;;;3.33;0.80;;;;;;;;;;5043300;28;20812;-76
2023/02/26 11:44:21;;;;;;;3.42;0.65;;;;;;;;;;5041328;28;20032;-76
2023/02/26 11:46:55;;;;;;;3.15;0.93;;;;;;;;;;5045321;28;20116;-76
2023/02/26 11:49:23;;;;;;;1.73;0.52;;;;;;;;;;5041109;28;20033;-76
2023/02/26 11:52:01;;;;;;;4.57;1.02;;;;;;;;;;5051526;28;20496;-77
2023/02/26 11:54:28;;;;;;;3.95;0.88;;;;;;;;;;5041267;28;20029;-76
2023/02/26 11:57:01;;;;;;;1.77;0.65;;;;;;;;;;5049961;28;20029;-76
2023/02/26 11:59:30;;;;;;;4.60;0.80;;;;;;;;;;5051459;28;20041;-76
2023/02/26 12:02:01;;;;;;;2.25;0.68;;;;;;;;;;5039629;28;20040;-76
2023/02/26 12:04:27;;;;;;;3.17;0.77;;;;;;;;;;5047381;28;20041;-76
2023/02/26 12:06:53;;;;;;;2.60;0.90;;;;;;;;;;5043326;28;20037;-76
2023/02/26 12:09:20;;;;;;;1.67;0.50;;;;;;;;;;5044559;28;20060;-76
2023/02/26 12:11:49;;;;;;;3.63;0.73;;;;;;;;;;5037720;28;20033;-76
2023/02/26 12:14:40;;;;;;;2.40;0.70;;;;;;;;;;5043680;28;20033;-76
2023/02/26 12:17:27;;;;;;;3.35;0.85;;;;;;;;;;5054208;28;20025;-76
2023/02/26 12:20:14;;;;;;;2.38;0.80;;;;;;;;;;5041982;28;20028;-76
2023/02/26 12:23:12;;;;;;;6.97;0.90;;;;;;;;;;5037711;28;20433;-76
2023/02/26 12:25:41;;;;;;;6.22;0.90;;;;;;;;;;5015583;28;20061;-76
2023/02/26 12:28:16;;;;;;;4.03;0.60;;;;;;;;;;5047818;28;20382;-76
2023/02/26 12:31:01;;;;;;;2.17;0.70;;;;;;;;;;5044326;28;20044;-76
2023/02/26 12:33:45;;;;;;;3.25;0.75;;;;;;;;;;5046351;28;20032;-76
2023/02/26 12:36:17;;;;;;;2.88;0.60;;;;;;;;;;5048103;28;20063;-76
2023/02/26 12:38:46;;;;;;;2.47;0.70;;;;;;;;;;5035710;28;20063;-76
2023/02/26 12:41:29;;;;;;;1.88;0.70;;;;;;;;;;5046859;28;20172;-76
2023/02/26 12:43:56;;;;;;;1.65;0.50;;;;;;;;;;5043514;28;20045;-76
2023/02/26 12:46:25;;;;;;;3.63;0.45;;;;;;;;;;5049816;28;20033;-76
2023/02/26 12:48:51;;;;;;;2.42;0.60;;;;;;;;;;5047097;28;20060;-76
2023/02/26 12:51:20;;;;;;;3.13;0.73;;;;;;;;;;5044585;28;20079;-76
2023/02/26 12:53:46;;;;;;;2.33;0.75;;;;;;;;;;5042884;28;20079;-76
2023/02/26 12:56:16;;;;;;;1.60;0.50;;;;;;;;;;5035180;28;20110;-76
2023/02/26 12:58:41;;;;;;;3.13;0.85;;;;;;;;;;5046475;28;20035;-76
2023/02/26 13:01:08;;;;;;;2.13;0.52;;;;;;;;;;5049920;28;20040;-76
2023/02/26 13:03:53;;;;;;;1.38;0.50;;;;;;;;;;5035711;28;20021;-76
2023/02/26 13:06:44;;;;;;;3.72;0.82;;;;;;;;;;5046874;28;20037;-76
2023/02/26 13:09:30;;;;;;;3.17;0.70;;;;;;;;;;5045115;28;20030;-76
2023/02/26 13:12:14;;;;;;;1.85;0.57;;;;;;;;;;5041137;28;20069;-76
2023/02/26 13:14:59;;;;;;;3.47;0.80;;;;;;;;;;5047188;28;20056;-76
2023/02/26 13:17:57;;;;;;;4.50;0.60;;;;;;;;;;5044180;28;20067;-76
2023/02/26 13:20:27;;;;;;;1.77;0.50;;;;;;;;;;5010345;28;20091;-76
2023/02/26 13:23:20;;;;;;;2.00;0.65;;;;;;;;;;5060759;28;20032;-76
2023/02/26 13:25:49;;;;;;;2.47;0.50;;;;;;;;;;5046837;28;20123;-76
2023/02/26 13:28:22;;;;;;;2.45;0.60;;;;;;;;;;5049931;28;20029;-76
2023/02/26 13:30:58;;;;;;;2.33;0.52;;;;;;;;;;5048855;28;20037;-76
2023/02/26 13:33:27;;;;;;;3.03;0.70;;;;;;;;;;5040913;28;20041;-76
2023/02/26 13:35:54;;;;;;;2.75;0.50;;;;;;;;;;5043499;28;20040;-76
2023/02/26 13:38:33;;;;;;;1.83;0.50;;;;;;;;;;5039522;28;20034;-76
2023/02/26 13:41:17;;;;;;;5.00;1.00;;;;;;;;;;5038129;28;20663;-76
2023/02/26 13:43:49;;;;;;;2.05;0.60;;;;;;;;;;5052927;28;20123;-76
2023/02/26 13:46:20;;;;;;;3.33;0.70;;;;;;;;;;5042078;28;20055;-76
2023/02/26 13:48:59;;;;;;;2.65;0.50;;;;;;;;;;5044849;28;20389;-76
2023/02/26 13:51:31;;;;;;;5.07;0.80;;;;;;;;;;5041574;28;20119;-76
2023/02/26 13:53:59;;;;;;;3.63;0.60;;;;;;;;;;5046505;28;20041;-76
2023/02/26 13:56:31;;;;;;;3.33;0.50;;;;;;;;;;5049572;28;20040;-76
2023/02/26 13:59:12;;;;;;;3.28;0.90;;;;;;;;;;5042801;28;20496;-76
2023/02/26 14:01:53;;;;;;;3.47;0.60;;;;;;;;;;5031324;28;20121;-76
2023/02/26 14:04:22;;;;;;;3.15;0.82;;;;;;;;;;5038660;28;20037;-76
2023/02/26 14:06:48;;;;;;;2.92;0.80;;;;;;;;;;5040092;28;20052;-76
2023/02/26 14:09:25;;;;;;;3.70;0.60;;;;;;;;;;5049365;28;20033;-76
2023/02/26 14:11:54;;;;;;;2.60;0.70;;;;;;;;;;5021063;28;20077;-76
2023/02/26 14:14:24;;;;;;;3.30;0.90;;;;;;;;;;5041850;28;20112;-76
2023/02/26 14:16:54;;;;;;;6.32;0.60;;;;;;;;;;5047323;28;20040;-76
2023/02/26 14:19:20;;;;;;;4.55;0.60;;;;;;;;;;5048004;28;20036;-76
2023/02/26 14:21:50;;;;;;;1.65;0.60;;;;;;;;;;5038086;28;20041;-76
2023/02/26 14:24:23;;;;;;;4.80;0.63;;;;;;;;;;5038821;28;20041;-76
2023/02/26 14:26:51;;;;;;;3.28;0.77;;;;;;;;;;5046932;28;20079;-76
2023/02/26 14:29:22;;;;;;;2.03;0.50;;;;;;;;;;5045979;28;20029;-76
2023/02/26 14:32:00;;;;;;;2.67;0.75;;;;;;;;;;5048186;28;20049;-76
2023/02/26 14:34:27;;;;;;;3.90;0.68;;;;;;;;;;5050723;28;20029;-76
2023/02/26 14:36:55;;;;;;;4.45;0.70;;;;;;;;;;5047722;28;20032;-76
2023/02/26 14:39:24;;;;;;;2.90;0.75;;;;;;;;;;5047762;28;20027;-76
2023/02/26 14:41:51;;;;;;;1.90;0.60;;;;;;;;;;5039769;28;20045;-76
2023/02/26 14:44:19;;;;;;;2.17;0.70;;;;;;;;;;5052416;28;20767;-76
2023/02/26 14:46:46;;;;;;;4.82;1.13;;;;;;;;;;5046289;28;20102;-76
2023/02/26 14:49:18;;;;;;;4.88;0.88;;;;;;;;;;5044144;28;20063;-76
2023/02/26 14:51:44;;;;;;;2.55;0.70;;;;;;;;;;5044996;28;20037;-77
2023/02/26 14:54:20;;;;;;;3.30;0.95;;;;;;;;;;5043461;28;20031;-77
2023/02/26 14:56:49;;;;;;;3.05;0.90;;;;;;;;;;5045642;28;20071;-77